createdAt,value
2023-04-19T00:00:40.791Z,9.50
2023-04-19T00:03:09.364Z,9.30
2023-04-19T00:08:07.070Z,9.10
2023-04-19T00:10:35.995Z,8.90
2023-04-19T00:13:05.550Z,8.90
2023-04-19T00:15:35.160Z,8.60
2023-04-19T00:18:03.992Z,8.50
2023-04-19T00:20:32.583Z,8.40
2023-04-19T00:23:00.716Z,8.50
2023-04-19T00:25:31.080Z,8.50
2023-04-19T00:27:59.218Z,8.40
2023-04-19T00:32:57.363Z,8.30
2023-04-19T00:35:25.735Z,8.30
2023-04-19T00:37:53.917Z,8.30
2023-04-19T00:40:22.299Z,8.20
2023-04-19T00:42:50.435Z,8.30
2023-04-19T00:45:18.611Z,8.30
2023-04-19T00:47:48.314Z,8.30
2023-04-19T00:50:16.990Z,8.30
2023-04-19T00:52:45.884Z,8.30
2023-04-19T00:55:14.884Z,8.30
2023-04-19T00:57:43.506Z,8.40
2023-04-19T01:00:12.796Z,8.40
2023-04-19T01:02:41.221Z,8.40
2023-04-19T01:05:11.051Z,8.50
2023-04-19T01:07:39.313Z,8.50
2023-04-19T01:10:07.926Z,8.50
2023-04-19T01:12:36.179Z,8.50
2023-04-19T01:15:04.492Z,8.50
2023-04-19T01:17:33.977Z,8.40
2023-04-19T01:20:03.374Z,8.50
2023-04-19T01:22:33.179Z,8.40
2023-04-19T01:25:01.775Z,8.40
2023-04-19T01:27:29.890Z,8.40
2023-04-19T01:29:57.983Z,8.40
2023-04-19T01:32:26.965Z,8.40
2023-04-19T01:34:55.090Z,8.50
2023-04-19T01:37:23.236Z,8.50
2023-04-19T01:39:52.705Z,8.50
2023-04-19T01:42:20.777Z,8.40
2023-04-19T01:57:41.074Z,8.40
2023-04-19T02:00:10.386Z,8.20
2023-04-19T02:02:38.764Z,8.20
2023-04-19T02:17:56.443Z,8.30
2023-04-19T02:20:24.966Z,8.40
2023-04-19T02:22:53.172Z,8.40
2023-04-19T02:25:22.122Z,8.40
2023-04-19T02:27:50.191Z,8.40
2023-04-19T02:30:18.370Z,8.50
2023-04-19T02:48:03.993Z,8.50
2023-04-19T02:50:34.387Z,8.40
2023-04-19T02:53:02.509Z,8.30
2023-04-19T02:55:30.734Z,8.30
2023-04-19T02:57:58.868Z,8.20
2023-04-19T03:13:23.235Z,8.30
2023-04-19T03:15:51.523Z,8.50
2023-04-19T03:18:19.599Z,8.60
2023-04-19T03:20:47.738Z,8.60
2023-04-19T03:23:15.885Z,8.70
2023-04-19T03:25:44.020Z,8.70
2023-04-19T03:28:12.137Z,8.60
2023-04-19T03:30:42.381Z,8.60
2023-04-19T03:46:05.648Z,8.70
2023-04-19T03:48:35.710Z,8.90
2023-04-19T03:51:03.827Z,9.00
2023-04-19T03:53:31.916Z,9.10
2023-04-19T03:56:00.100Z,9.10
2023-04-19T03:58:28.243Z,9.10
2023-04-19T04:00:56.369Z,9.10
2023-04-19T04:03:26.151Z,9.20
2023-04-19T04:19:22.108Z,9.30
2023-04-19T04:21:50.407Z,9.20
2023-04-19T04:24:20.326Z,9.30
2023-04-19T04:26:49.917Z,9.30
2023-04-19T04:29:18.134Z,9.30
2023-04-19T04:31:46.274Z,9.30
2023-04-19T04:34:14.630Z,9.30
2023-04-19T04:36:44.351Z,9.30
2023-04-19T04:39:13.231Z,9.30
2023-04-19T04:41:42.532Z,9.30
2023-04-19T04:44:13.009Z,9.30
2023-04-19T04:46:41.358Z,9.30
2023-04-19T04:49:09.529Z,9.30
2023-04-19T04:51:37.630Z,9.30
2023-04-19T04:54:07.228Z,9.40
2023-04-19T05:10:05.499Z,9.60
2023-04-19T05:12:33.627Z,9.70
2023-04-19T05:28:46.087Z,9.60
2023-04-19T05:31:14.676Z,9.60
2023-04-19T05:33:42.899Z,9.70
2023-04-19T05:36:11.369Z,9.80
2023-04-19T05:38:39.510Z,9.80
2023-04-19T05:41:07.945Z,9.90
2023-04-19T05:43:36.325Z,10.00
2023-04-19T05:46:05.887Z,10.10
2023-04-19T06:01:20.110Z,10.20
2023-04-19T06:03:53.349Z,10.50
2023-04-19T06:06:23.636Z,10.60
2023-04-19T06:08:54.445Z,10.60
2023-04-19T06:11:29.247Z,10.60
2023-04-19T06:14:07.016Z,10.70
2023-04-19T06:45:37.389Z,10.90
2023-04-19T06:48:06.251Z,11.10
2023-04-19T06:50:34.354Z,11.10
